Time;durP1;ratioP1;P1;durP2;ratioP2;P2;SDS_P1;SDS_P2;PMS_P1;PMS_P2;Temp;Humidity;BMP_temperature;BMP_pressure;BME280_temperature;BME280_humidity;BME280_pressure;Samples;Min_cycle;Max_cycle;Signal;HPM_P1;HPM_P2
2022/08/17 00:00:00;;;;;;;9.35;5.30;;;24.70;99.90;;;;;;1917499;73;21123;-87
2022/08/17 00:03:08;;;;;;;8.65;5.03;;;24.50;99.90;;;;;;1897610;75;21057;-87
2022/08/17 00:06:02;;;;;;;10.38;5.62;;;24.20;99.90;;;;;;1905240;74;21550;-88
2022/08/17 00:08:56;;;;;;;9.63;5.37;;;23.80;99.90;;;;;;1850953;76;21114;-88
2022/08/17 00:11:49;;;;;;;7.28;4.90;;;23.60;99.90;;;;;;1914476;73;21534;-88
2022/08/17 00:14:51;;;;;;;7.47;5.30;;;23.60;99.90;;;;;;1924977;73;21111;-88
2022/08/17 00:17:44;;;;;;;8.53;4.85;;;23.50;99.90;;;;;;1910446;73;21164;-87
2022/08/17 00:20:44;;;;;;;6.50;4.70;;;23.60;99.90;;;;;;1922274;73;21068;-86
2022/08/17 00:23:35;;;;;;;7.67;5.00;;;23.70;99.90;;;;;;1925466;73;21099;-86
2022/08/17 00:29:13;;;;;;;6.62;4.78;;;23.80;99.90;;;;;;1942670;72;22246;-86
2022/08/17 00:32:07;;;;;;;6.37;5.37;;;23.80;99.90;;;;;;1925709;73;21074;-87
2022/08/17 00:35:00;;;;;;;7.47;5.00;;;23.80;99.90;;;;;;1947257;73;21095;-86
2022/08/17 00:37:52;;;;;;;6.67;5.15;;;23.70;99.90;;;;;;1935570;73;21101;-86
2022/08/17 00:40:47;;;;;;;5.53;5.03;;;23.80;99.90;;;;;;1928985;73;21112;-87
2022/08/17 00:43:41;;;;;;;7.85;5.08;;;23.70;99.90;;;;;;1944978;73;21139;-87
2022/08/17 00:46:36;;;;;;;7.87;4.85;;;23.70;99.90;;;;;;1937445;73;21130;-86
2022/08/17 00:49:29;;;;;;;6.50;4.78;;;23.70;99.90;;;;;;1929460;73;21027;-91
2022/08/17 00:52:23;;;;;;;7.25;4.80;;;23.80;99.90;;;;;;1936453;73;21033;-90
2022/08/17 00:55:14;;;;;;;6.55;4.55;;;23.80;99.90;;;;;;1914349;74;21538;-89
2022/08/17 00:58:07;;;;;;;6.87;5.20;;;23.90;99.90;;;;;;1943395;73;21158;-90
2022/08/17 01:01:37;;;;;;;7.00;5.03;;;23.90;99.90;;;;;;1930737;73;20999;-90
2022/08/17 01:04:39;;;;;;;7.90;4.90;;;23.80;99.90;;;;;;1913911;73;21095;-85
2022/08/17 01:07:31;;;;;;;7.10;5.33;;;23.70;99.90;;;;;;1940294;73;21135;-84
2022/08/17 01:10:26;;;;;;;7.40;5.70;;;23.70;99.90;;;;;;1929095;73;21047;-84
2022/08/17 01:13:19;;;;;;;7.08;5.28;;;23.60;99.90;;;;;;1935348;73;21179;-84
2022/08/17 01:16:16;;;;;;;7.03;5.58;;;23.50;99.90;;;;;;1927457;73;21110;-82
2022/08/17 01:19:10;;;;;;;5.33;4.67;;;23.40;99.90;;;;;;1937369;73;21099;-82
2022/08/17 01:22:05;;;;;;;5.47;4.90;;;23.30;99.90;;;;;;1939863;73;21138;-81
2022/08/17 01:25:01;;;;;;;6.78;4.87;;;23.30;99.90;;;;;;1934547;73;21089;-85
2022/08/17 01:27:52;;;;;;;6.17;4.97;;;23.20;99.90;;;;;;1939807;73;21062;-85
2022/08/17 01:30:44;;;;;;;8.28;5.65;;;23.20;99.90;;;;;;1944899;73;21176;-85
2022/08/17 01:33:37;;;;;;;7.05;5.80;;;23.20;99.90;;;;;;1933685;73;21065;-85
2022/08/17 01:36:31;;;;;;;5.90;5.30;;;23.10;99.90;;;;;;1921302;74;21051;-88
2022/08/17 01:42:09;;;;;;;9.60;5.95;;;23.00;99.90;;;;;;1943355;72;22680;-82
2022/08/17 01:45:05;;;;;;;6.90;5.80;;;23.10;99.90;;;;;;1889446;75;21207;-83
2022/08/17 01:50:37;;;;;;;7.28;5.80;;;23.10;99.90;;;;;;1933151;72;22571;-81
2022/08/17 01:53:32;;;;;;;8.23;5.72;;;23.00;99.90;;;;;;1905814;75;21158;-82
2022/08/17 01:56:25;;;;;;;7.83;5.20;;;23.00;99.90;;;;;;1896385;75;21122;-82
2022/08/17 01:59:18;;;;;;;6.17;4.78;;;22.90;99.90;;;;;;1888691;75;21207;-82
2022/08/17 02:02:22;;;;;;;7.60;5.10;;;22.90;99.90;;;;;;1860211;76;21055;-85
2022/08/17 02:07:55;;;;;;;7.20;5.62;;;22.80;99.90;;;;;;1918757;72;22306;-85
2022/08/17 02:10:49;;;;;;;6.45;5.53;;;22.80;99.90;;;;;;1890251;74;21149;-84
2022/08/17 02:13:41;;;;;;;7.90;5.83;;;22.80;99.90;;;;;;1884680;74;21060;-85
2022/08/17 02:16:36;;;;;;;8.90;5.30;;;22.60;99.90;;;;;;1875475;74;21106;-86
2022/08/17 02:19:30;;;;;;;6.05;5.45;;;22.50;99.90;;;;;;1885381;74;21570;-86
2022/08/17 02:22:24;;;;;;;10.72;5.60;;;22.50;99.90;;;;;;1904500;74;21057;-85
2022/08/17 02:25:18;;;;;;;8.93;5.92;;;22.30;99.90;;;;;;1873095;75;21099;-88
2022/08/17 02:28:12;;;;;;;7.08;6.12;;;22.30;99.90;;;;;;1903576;74;21128;-87
2022/08/17 02:33:47;;;;;;;8.70;6.22;;;22.20;99.90;;;;;;1950363;72;22228;-86
2022/08/17 02:36:40;;;;;;;8.48;6.20;;;22.10;99.90;;;;;;1892867;75;21494;-84
2022/08/17 02:39:31;;;;;;;8.63;6.97;;;22.10;99.90;;;;;;1901339;75;21063;-84
2022/08/17 02:42:28;;;;;;;9.65;6.08;;;22.00;99.90;;;;;;1904222;75;21482;-85
2022/08/17 02:48:04;;;;;;;7.40;5.62;;;21.90;99.90;;;;;;1924771;72;22155;-85
2022/08/17 02:50:55;;;;;;;11.18;6.30;;;21.80;99.90;;;;;;1899438;74;21612;-84
2022/08/17 02:53:47;;;;;;;6.87;5.55;;;21.80;99.90;;;;;;1849143;77;21087;-83
2022/08/17 02:56:38;;;;;;;7.78;5.62;;;21.80;99.90;;;;;;1890746;75;21117;-82
2022/08/17 02:59:30;;;;;;;7.55;5.92;;;21.90;99.90;;;;;;1893020;75;21073;-84
2022/08/17 03:02:22;;;;;;;6.55;5.67;;;21.90;99.90;;;;;;1893223;75;21762;-84
2022/08/17 03:05:16;;;;;;;6.58;5.37;;;22.00;99.90;;;;;;1886233;75;21156;-83
2022/08/17 03:08:08;;;;;;;10.88;5.85;;;22.00;99.90;;;;;;1889289;75;21142;-82
2022/08/17 03:11:00;;;;;;;7.78;5.50;;;22.00;99.90;;;;;;1906474;75;21496;-82
2022/08/17 03:13:52;;;;;;;6.78;5.78;;;22.00;99.90;;;;;;1890889;75;21059;-82
2022/08/17 03:16:43;;;;;;;7.75;5.92;;;22.00;99.90;;;;;;1892996;75;21374;-83
2022/08/17 03:19:34;;;;;;;5.92;5.25;;;22.00;99.90;;;;;;1904036;75;21059;-83
2022/08/17 03:22:29;;;;;;;7.17;5.97;;;21.90;99.90;;;;;;1894745;75;21131;-83
2022/08/17 03:25:25;;;;;;;7.55;5.20;;;21.90;99.90;;;;;;1901247;75;21172;-90
2022/08/17 03:28:16;;;;;;;6.50;5.50;;;21.80;99.90;;;;;;1893142;75;21133;-92
2022/08/17 03:31:08;;;;;;;6.17;5.40;;;21.70;99.90;;;;;;1901452;75;21262;-93
2022/08/17 03:36:40;;;;;;;6.75;5.33;;;21.80;99.90;;;;;;1935322;72;22544;-89
2022/08/17 03:39:32;;;;;;;9.03;6.12;;;21.80;99.90;;;;;;1898086;75;21131;-90
2022/08/17 03:42:26;;;;;;;6.87;5.67;;;21.80;99.90;;;;;;1886681;75;21059;-89
2022/08/17 03:57:55;;;;;;;7.22;5.85;;;21.40;99.90;;;;;;1920958;73;21070;-89
2022/08/17 04:00:56;;;;;;;7.47;6.12;;;21.40;99.90;;;;;;1920827;73;21204;-85
2022/08/17 04:03:47;;;;;;;8.08;6.30;;;21.50;99.90;;;;;;1918906;73;21046;-85
2022/08/17 04:06:39;;;;;;;6.83;6.12;;;21.40;99.90;;;;;;1886685;75;21571;-85
2022/08/17 04:09:30;;;;;;;6.55;5.90;;;21.40;99.90;;;;;;1923193;73;21212;-85
2022/08/17 04:15:03;;;;;;;7.72;5.58;;;21.20;99.90;;;;;;1932712;72;22155;-85
2022/08/17 04:17:55;;;;;;;8.53;5.97;;;21.20;99.90;;;;;;1922552;73;21059;-85
2022/08/17 04:20:47;;;;;;;6.20;5.37;;;21.30;99.90;;;;;;1914679;73;21625;-86
2022/08/17 04:23:38;;;;;;;10.20;5.75;;;21.30;99.90;;;;;;1897835;75;21153;-89
2022/08/17 04:26:32;;;;;;;6.87;6.17;;;21.20;99.90;;;;;;1903391;74;21111;-88
2022/08/17 04:29:25;;;;;;;8.65;5.85;;;21.20;99.90;;;;;;1884907;76;21131;-91
2022/08/17 04:35:03;;;;;;;7.17;6.25;;;21.20;99.90;;;;;;1935325;72;20173;-83
2022/08/17 04:37:54;;;;;;;7.05;5.80;;;21.20;99.90;;;;;;1899203;74;21067;-83
2022/08/17 04:43:57;;;;;;;7.12;5.75;;;21.20;99.90;;;;;;1899191;75;21164;-87
2022/08/17 04:46:48;;;;;;;6.25;5.62;;;21.30;99.90;;;;;;1891940;75;21094;-87
2022/08/17 04:49:40;;;;;;;11.33;5.90;;;21.20;99.90;;;;;;1904563;75;21075;-92
2022/08/17 04:52:31;;;;;;;8.55;5.75;;;21.10;99.90;;;;;;1903017;75;21175;-91
2022/08/17 04:55:24;;;;;;;8.58;5.87;;;21.10;99.90;;;;;;1885390;75;21128;-91
2022/08/17 04:58:16;;;;;;;7.17;5.50;;;21.20;99.90;;;;;;1892116;75;21121;-89
2022/08/17 05:01:08;;;;;;;6.30;5.67;;;21.30;99.90;;;;;;1900046;75;21116;-89
2022/08/17 05:04:02;;;;;;;8.03;5.97;;;21.30;99.90;;;;;;1899935;75;21109;-90
2022/08/17 05:06:55;;;;;;;6.83;6.12;;;21.30;99.90;;;;;;1892878;75;21136;-90
2022/08/17 05:09:46;;;;;;;8.03;5.95;;;21.20;99.90;;;;;;1910927;75;21322;-90
2022/08/17 05:12:38;;;;;;;6.72;6.03;;;21.20;99.90;;;;;;1899136;75;21136;-90
2022/08/17 05:15:31;;;;;;;9.05;6.20;;;21.20;99.90;;;;;;1897870;75;21038;-83
2022/08/17 05:18:26;;;;;;;7.97;6.22;;;21.10;99.90;;;;;;1891831;75;21120;-83
2022/08/17 05:21:19;;;;;;;8.35;6.40;;;21.10;99.90;;;;;;1890047;75;21088;-83
2022/08/17 05:24:11;;;;;;;7.97;6.50;;;21.10;99.90;;;;;;1879838;75;21153;-83
2022/08/17 05:27:04;;;;;;;10.48;7.05;;;21.10;99.90;;;;;;1895794;75;21074;-83
2022/08/17 05:29:57;;;;;;;9.73;7.00;;;21.10;99.90;;;;;;1898614;75;21133;-83
2022/08/17 05:32:57;;;;;;;9.55;6.90;;;21.00;99.90;;;;;;1894387;75;21055;-83
2022/08/17 05:35:51;;;;;;;10.90;7.12;;;21.10;99.90;;;;;;1884240;75;21188;-85
2022/08/17 05:38:43;;;;;;;9.03;6.53;;;21.10;99.90;;;;;;1906881;75;21075;-84
2022/08/17 05:44:14;;;;;;;9.20;6.58;;;21.30;99.90;;;;;;1943774;72;22386;-87
2022/08/17 05:47:08;;;;;;;8.45;5.87;;;21.40;99.90;;;;;;1903743;75;21133;-88
2022/08/17 05:50:01;;;;;;;6.85;6.15;;;21.60;99.90;;;;;;1913233;75;21558;-89
2022/08/17 05:52:58;;;;;;;7.10;6.47;;;21.80;99.90;;;;;;1912277;75;21094;-91
2022/08/17 05:55:53;;;;;;;10.80;6.28;;;21.90;99.90;;;;;;1903878;75;21118;-72
2022/08/17 06:01:35;;;;;;;8.60;6.08;;;22.10;99.90;;;;;;1940487;72;22259;-74
2022/08/17 06:04:30;;;;;;;10.20;6.58;;;22.10;99.90;;;;;;1890673;75;21205;-73
2022/08/17 06:07:25;;;;;;;6.92;5.95;;;22.10;99.90;;;;;;1885638;75;21361;-73
2022/08/17 06:10:19;;;;;;;9.55;6.65;;;22.20;99.90;;;;;;1891212;75;21066;-72
2022/08/17 06:15:58;;;;;;;9.03;7.30;;;22.20;99.90;;;;;;1937748;72;22231;-73
2022/08/17 06:18:52;;;;;;;8.70;6.67;;;22.20;99.90;;;;;;1897274;75;21622;-72
2022/08/17 06:21:52;;;;;;;10.40;6.58;;;22.30;99.90;;;;;;1897312;75;21200;-73
2022/08/17 06:24:46;;;;;;;8.65;6.33;;;22.40;99.90;;;;;;1899704;75;21121;-73
2022/08/17 06:27:40;;;;;;;8.38;5.95;;;22.50;99.90;;;;;;1893213;75;21062;-74
2022/08/17 06:30:36;;;;;;;8.00;6.30;;;22.60;99.90;;;;;;1903078;75;21082;-73
2022/08/17 06:33:32;;;;;;;8.30;6.27;;;22.80;99.90;;;;;;1891332;75;21150;-73
2022/08/17 06:36:35;;;;;;;8.18;6.95;;;22.90;99.90;;;;;;1902511;75;21051;-73
2022/08/17 06:39:34;;;;;;;8.48;6.10;;;23.10;99.90;;;;;;1891948;75;21117;-73
2022/08/17 06:45:26;;;;;;;7.92;5.87;;;23.50;99.90;;;;;;1943865;72;22147;-72
2022/08/17 06:48:45;;;;;;;7.72;5.70;;;23.60;99.90;;;;;;1926272;73;21136;-72
2022/08/17 06:51:48;;;;;;;7.03;5.50;;;23.70;99.90;;;;;;1931316;73;21192;-73
2022/08/17 06:54:44;;;;;;;8.98;5.60;;;23.80;99.90;;;;;;1942372;73;21069;-73
2022/08/17 06:57:38;;;;;;;8.03;6.50;;;23.90;99.90;;;;;;1933272;73;21091;-73
2022/08/17 07:00:36;;;;;;;11.00;6.85;;;23.90;99.90;;;;;;1917281;75;21183;-73
2022/08/17 07:03:32;;;;;;;7.80;5.97;;;23.90;99.90;;;;;;1917161;75;21052;-75
2022/08/17 07:06:27;;;;;;;8.98;6.00;;;23.90;99.90;;;;;;1928797;73;21093;-74
2022/08/17 07:09:30;;;;;;;10.23;6.20;;;24.00;99.90;;;;;;1934371;73;21148;-74
2022/08/17 07:15:10;;;;;;;10.70;5.90;;;24.20;99.90;;;;;;1919123;72;22286;-72
2022/08/17 07:18:02;;;;;;;9.43;6.35;;;24.20;99.90;;;;;;1924623;73;21110;-79
2022/08/17 07:20:57;;;;;;;8.65;6.00;;;24.20;99.90;;;;;;1920775;73;21086;-78
2022/08/17 07:24:01;;;;;;;7.87;6.30;;;24.20;99.90;;;;;;1925290;73;21216;-77
2022/08/17 07:27:08;;;;;;;8.88;5.58;;;24.20;99.90;;;;;;1923507;73;21094;-77
2022/08/17 07:32:45;;;;;;;11.88;6.28;;;24.20;99.90;;;;;;1936482;72;22693;-79
2022/08/17 07:35:39;;;;;;;13.75;5.90;;;24.10;99.90;;;;;;1911353;74;21304;-80
2022/08/17 07:38:33;;;;;;;10.30;5.95;;;24.10;99.90;;;;;;1900114;74;21613;-78
2022/08/17 07:41:31;;;;;;;12.88;6.30;;;24.00;99.90;;;;;;1907913;74;21102;-82
2022/08/17 07:44:24;;;;;;;9.73;6.10;;;24.10;99.90;;;;;;1835097;77;21217;-82
2022/08/17 07:50:29;;;;;;;7.37;5.80;;;24.20;99.90;;;;;;1916839;74;21126;-81
2022/08/17 07:53:23;;;;;;;10.85;5.47;;;24.30;99.90;;;;;;1904956;74;21160;-82
2022/08/17 07:56:37;;;;;;;10.48;5.67;;;24.50;99.90;;;;;;1912852;75;21109;-84
2022/08/17 07:59:30;;;;;;;7.35;5.10;;;24.60;99.90;;;;;;1911839;74;21071;-87
2022/08/17 08:05:13;;;;;;;11.00;6.70;;;24.70;99.90;;;;;;1916615;72;28104;-86
2022/08/17 08:11:02;;;;;;;9.00;5.75;;;24.90;99.90;;;;;;1945748;72;22235;-78
2022/08/17 08:14:01;;;;;;;7.78;5.95;;;25.00;99.90;;;;;;1928017;73;21146;-77
2022/08/17 08:16:59;;;;;;;10.38;5.92;;;25.30;99.90;;;;;;1926238;73;21564;-86
2022/08/17 08:22:42;;;;;;;7.60;5.90;;;25.40;99.90;;;;;;1937322;72;22287;-85
2022/08/17 08:28:24;;;;;;;7.33;5.25;;;25.70;99.90;;;;;;1952885;72;22125;-82
2022/08/17 08:31:23;;;;;;;8.00;5.80;;;25.90;99.90;;;;;;1918253;73;21095;-84
2022/08/17 08:34:22;;;;;;;10.05;5.37;;;26.10;99.90;;;;;;1906639;74;21630;-84
2022/08/17 08:37:21;;;;;;;8.80;5.75;;;26.10;99.90;;;;;;1915188;74;21098;-84
2022/08/17 08:40:26;;;;;;;5.92;5.20;;;26.30;99.90;;;;;;1921025;74;21184;-84
2022/08/17 08:43:25;;;;;;;9.20;5.58;;;26.50;99.90;;;;;;1910866;74;21125;-87
2022/08/17 08:49:36;;;;;;;11.78;5.83;;;26.80;99.90;;;;;;1929595;72;22790;-85
2022/08/17 08:52:56;;;;;;;6.33;5.00;;;26.90;99.90;;;;;;1903622;74;21097;-85
2022/08/17 08:58:38;;;;;;;9.23;5.55;;;26.80;99.90;;;;;;1929747;72;22210;-84
2022/08/17 09:04:27;;;;;;;10.50;6.08;;;26.90;99.90;;;;;;1952886;72;22250;-84
2022/08/17 09:10:23;;;;;;;8.68;5.55;;;26.80;99.90;;;;;;1930477;72;22102;-84
2022/08/17 09:16:03;;;;;;;6.30;5.00;;;27.10;99.90;;;;;;1946231;72;22926;-84
2022/08/17 09:19:03;;;;;;;7.55;5.10;;;27.00;99.90;;;;;;1891525;75;21491;-85
2022/08/17 09:22:16;;;;;;;12.58;5.47;;;27.10;99.90;;;;;;1899186;75;21177;-85
2022/08/17 09:25:25;;;;;;;11.25;5.22;;;27.10;99.90;;;;;;1889809;75;21047;-85
2022/08/17 09:31:16;;;;;;;10.23;5.28;;;27.20;99.90;;;;;;1922963;72;22392;-84
2022/08/17 09:34:17;;;;;;;;;;;27.40;99.90;;;;;;1935896;73;21049;-84
2022/08/17 09:40:12;;;;;;;11.75;6.22;;;27.70;99.90;;;;;;1939377;72;22644;-85
2022/08/17 09:45:53;;;;;;;9.60;5.53;;;27.60;99.90;;;;;;1953483;72;22210;-84
2022/08/17 09:48:47;;;;;;;9.48;5.40;;;27.50;99.90;;;;;;1898023;75;21156;-84
2022/08/17 09:51:42;;;;;;;9.48;5.40;;;27.60;99.90;;;;;;1894232;75;21294;-84
2022/08/17 09:57:21;;;;;;;9.63;6.08;;;27.50;99.90;;;;;;1941977;72;22715;-81
2022/08/17 10:00:23;;;;;;;11.55;5.75;;;27.60;99.90;;;;;;1897898;75;21627;-81
2022/08/17 10:03:47;;;;;;;8.93;5.47;;;27.70;99.90;;;;;;1893376;75;21133;-81
2022/08/17 10:09:30;;;;;;;9.50;5.50;;;28.00;99.90;;;;;;1923745;72;22552;-81
2022/08/17 10:12:27;;;;;;;7.95;5.72;;;28.20;99.90;;;;;;1906425;75;21208;-81
2022/08/17 10:18:28;;;;;;;10.65;5.28;;;28.30;99.90;;;;;;1945112;72;22308;-81
2022/08/17 10:30:31;;;;;;;10.08;5.70;;;28.50;99.90;;;;;;1968764;72;22624;-74
2022/08/17 10:33:24;;;;;;;9.15;5.17;;;28.60;99.90;;;;;;1928107;73;21138;-77
2022/08/17 10:36:19;;;;;;;10.05;5.92;;;28.70;99.90;;;;;;1940989;73;21502;-76
2022/08/17 10:39:13;;;;;;;7.60;5.67;;;28.70;99.90;;;;;;1926712;73;21066;-76
2022/08/17 10:44:50;;;;;;;6.53;4.90;;;28.90;99.90;;;;;;1939532;72;22767;-77
2022/08/17 10:48:27;;;;;;;8.90;5.10;;;28.90;99.90;;;;;;1893120;75;21114;-77
2022/08/17 10:51:41;;;;;;;8.23;4.85;;;28.90;99.90;;;;;;1900260;75;21098;-77
2022/08/17 10:55:11;;;;;;;8.25;5.40;;;29.10;99.90;;;;;;1887121;75;21187;-77
2022/08/17 10:58:20;;;;;;;7.30;5.53;;;29.30;99.90;;;;;;1899811;75;21652;-79
2022/08/17 11:01:12;;;;;;;8.73;5.10;;;29.60;99.90;;;;;;1898152;75;21100;-80
2022/08/17 11:04:14;;;;;;;5.60;5.10;;;29.50;99.90;;;;;;1903005;75;21088;-80
2022/08/17 11:07:11;;;;;;;8.15;5.37;;;29.70;99.90;;;;;;1892400;75;21163;-80
2022/08/17 11:10:22;;;;;;;10.98;5.75;;;29.70;99.90;;;;;;1903480;75;21102;-80
2022/08/17 11:13:20;;;;;;;6.47;5.60;;;29.80;99.90;;;;;;1915900;75;21092;-79
2022/08/17 11:16:36;;;;;;;6.85;5.22;;;30.10;99.90;;;;;;1889942;75;21094;-79
2022/08/17 11:23:03;;;;;;;6.95;4.90;;;30.20;99.90;;;;;;1938690;72;22153;-80
2022/08/17 11:25:57;;;;;;;8.75;5.47;;;30.30;99.90;;;;;;1904702;75;21056;-81
2022/08/17 11:29:05;;;;;;;8.08;4.92;;;30.50;99.90;;;;;;1893712;75;21180;-80
2022/08/17 11:32:04;;;;;;;7.30;4.80;;;30.40;99.90;;;;;;1893572;75;21113;-80
2022/08/17 11:35:10;;;;;;;5.67;4.87;;;30.50;99.90;;;;;;1910503;75;21113;-80
2022/08/17 11:38:12;;;;;;;8.18;4.83;;;30.60;99.90;;;;;;1893361;75;21247;-81
2022/08/17 11:41:15;;;;;;;9.03;4.83;;;30.40;99.90;;;;;;1883723;75;21137;-80
2022/08/17 11:44:26;;;;;;;9.08;4.97;;;30.40;99.90;;;;;;1909183;75;21086;-80
2022/08/17 12:00:06;;;;;;;5.75;4.25;;;31.40;99.90;;;;;;1957793;72;22647;-80
2022/08/17 12:03:21;;;;;;;10.55;4.42;;;31.60;99.90;;;;;;1950676;73;21098;-81
2022/08/17 12:09:03;;;;;;;5.95;4.05;;;31.30;99.90;;;;;;1953115;72;22201;-80
2022/08/17 12:11:57;;;;;;;7.15;4.60;;;31.10;99.90;;;;;;1890242;75;21136;-80
2022/08/17 12:14:56;;;;;;;5.53;4.23;;;30.90;99.90;;;;;;1888132;75;21104;-80
2022/08/17 12:17:54;;;;;;;4.90;4.30;;;31.10;99.90;;;;;;1893653;75;21176;-77
2022/08/17 12:23:28;;;;;;;5.25;4.33;;;31.30;99.90;;;;;;1941648;72;22575;-79
2022/08/17 12:26:23;;;;;;;6.83;4.45;;;31.20;99.90;;;;;;1895735;75;21154;-79
2022/08/17 12:32:00;;;;;;;8.78;4.60;;;30.60;99.90;;;;;;1939691;72;22701;-78
2022/08/17 12:35:00;;;;;;;5.65;4.42;;;30.30;99.90;;;;;;1917270;75;21099;-80
2022/08/17 12:37:52;;;;;;;6.80;4.95;;;30.00;99.90;;;;;;1922796;73;21027;-78
2022/08/17 12:40:54;;;;;;;7.60;4.75;;;29.90;99.90;;;;;;1939538;72;21051;-78
2022/08/17 12:43:55;;;;;;;6.45;4.90;;;29.90;99.90;;;;;;1941704;72;21207;-79
2022/08/17 12:49:34;;;;;;;8.63;5.37;;;29.60;99.90;;;;;;1936264;72;22142;-81
2022/08/17 12:52:31;;;;;;;6.45;4.67;;;29.60;99.90;;;;;;1892822;75;21132;-82
2022/08/17 12:55:25;;;;;;;7.00;5.10;;;29.40;99.90;;;;;;1903209;75;21095;-82
2022/08/17 12:58:23;;;;;;;7.53;5.05;;;29.40;99.90;;;;;;1896439;74;21099;-81
2022/08/17 13:01:17;;;;;;;14.30;5.12;;;29.50;99.90;;;;;;1891600;75;21063;-81
2022/08/17 13:04:10;;;;;;;5.10;3.75;;;29.50;99.90;;;;;;1902789;75;21645;-81
2022/08/17 13:09:41;;;;;;;8.63;4.35;;;29.30;99.90;;;;;;1950911;72;22222;-78
2022/08/17 13:12:39;;;;;;;6.05;3.70;;;29.20;99.90;;;;;;1893460;75;21098;-78
2022/08/17 13:15:35;;;;;;;10.08;4.72;;;29.20;99.90;;;;;;1902366;75;21066;-79
2022/08/17 13:18:39;;;;;;;5.80;3.95;;;29.20;99.90;;;;;;1907295;75;21094;-78
2022/08/17 13:21:33;;;;;;;9.83;4.20;;;29.10;99.90;;;;;;1900534;75;21164;-78
2022/08/17 13:27:17;;;;;;;6.75;4.12;;;29.00;99.90;;;;;;1944128;72;22200;-78
2022/08/17 13:30:13;;;;;;;9.38;4.70;;;29.00;99.90;;;;;;1900678;74;21552;-76
2022/08/17 13:33:15;;;;;;;6.58;4.33;;;28.80;99.90;;;;;;1899440;75;21150;-78
2022/08/17 13:36:09;;;;;;;7.30;4.28;;;28.80;99.90;;;;;;1910109;74;21143;-78
2022/08/17 13:39:10;;;;;;;4.62;4.22;;;28.70;99.90;;;;;;1897005;75;21094;-78
2022/08/17 13:42:01;;;;;;;5.58;4.08;;;28.60;99.90;;;;;;1898709;75;21039;-80
2022/08/17 13:44:52;;;;;;;6.05;3.85;;;28.50;99.90;;;;;;1902133;75;22209;-78
2022/08/17 13:47:43;;;;;;;4.85;4.30;;;28.40;99.90;;;;;;1864881;76;21138;-79
2022/08/17 13:50:35;;;;;;;6.08;4.33;;;28.30;99.90;;;;;;1903116;75;21179;-80
2022/08/17 13:53:30;;;;;;;6.60;4.42;;;28.30;99.90;;;;;;1899557;75;21192;-79
2022/08/17 13:56:48;;;;;;;8.95;4.40;;;28.30;99.90;;;;;;1902249;75;21094;-79
2022/08/17 13:59:43;;;;;;;6.22;4.33;;;28.30;99.90;;;;;;1906051;75;21042;-78
2022/08/17 14:02:37;;;;;;;6.25;4.35;;;28.20;99.90;;;;;;1905302;75;21114;-77
2022/08/17 14:05:32;;;;;;;7.37;4.60;;;28.10;99.90;;;;;;1897702;75;21088;-80
2022/08/17 14:08:29;;;;;;;6.03;4.28;;;28.10;99.90;;;;;;1902886;75;21684;-81
2022/08/17 14:11:37;;;;;;;7.53;4.00;;;28.00;99.90;;;;;;1899537;75;21083;-81
2022/08/17 14:14:28;;;;;;;;;;;28.00;99.90;;;;;;1909962;75;21059;-80
2022/08/17 14:17:19;;;;;;;5.50;3.70;;;27.90;99.90;;;;;;1896254;75;20158;-76
2022/08/17 14:20:14;;;;;;;5.53;4.10;;;27.90;99.90;;;;;;1906429;75;21074;-79
2022/08/17 14:23:07;;;;;;;4.72;3.85;;;27.90;99.90;;;;;;1893804;75;21092;-78
2022/08/17 14:28:38;;;;;;;6.97;4.30;;;27.80;99.90;;;;;;1926425;72;22240;-79
2022/08/17 14:31:31;;;;;;;6.28;4.17;;;27.70;99.90;;;;;;1906164;74;21518;-76
2022/08/17 14:34:27;;;;;;;7.70;4.08;;;27.60;99.90;;;;;;1912552;74;21255;-77
2022/08/17 14:37:20;;;;;;;7.42;3.85;;;27.50;99.90;;;;;;1915590;74;21097;-80
2022/08/17 14:40:14;;;;;;;6.70;4.10;;;27.40;99.90;;;;;;1915878;74;21102;-76
2022/08/17 14:43:07;;;;;;;8.43;3.60;;;27.40;99.90;;;;;;1917927;74;21103;-79
2022/08/17 14:45:59;;;;;;;9.35;4.47;;;27.40;99.90;;;;;;1913629;74;21097;-80
2022/08/17 14:51:42;;;;;;;6.22;3.77;;;27.30;99.90;;;;;;1952509;72;22747;-78
2022/08/17 14:54:34;;;;;;;4.20;3.40;;;27.20;99.90;;;;;;1953730;72;21095;-80
2022/08/17 15:00:11;;;;;;;7.58;4.00;;;27.40;99.90;;;;;;1926003;72;22293;-78
2022/08/17 15:03:11;;;;;;;6.22;4.25;;;27.30;99.90;;;;;;1921855;73;21098;-77
2022/08/17 15:06:25;;;;;;;6.30;4.30;;;27.20;99.90;;;;;;1937214;73;21506;-76
2022/08/17 15:09:18;;;;;;;5.40;3.77;;;27.20;99.90;;;;;;1928081;73;21054;-78
2022/08/17 15:12:11;;;;;;;4.97;4.10;;;27.10;99.90;;;;;;1922332;73;21205;-78
2022/08/17 15:15:07;;;;;;;7.80;4.22;;;27.20;99.90;;;;;;1927781;73;21051;-78
2022/08/17 15:17:59;;;;;;;4.70;4.20;;;27.10;99.90;;;;;;1933130;73;21172;-78
2022/08/17 15:20:52;;;;;;;8.95;4.67;;;26.90;99.90;;;;;;1931909;73;21121;-79
2022/08/17 15:23:48;;;;;;;5.08;3.92;;;26.80;99.90;;;;;;1934054;73;21114;-79
2022/08/17 15:26:40;;;;;;;4.90;4.25;;;26.40;99.90;;;;;;1927010;73;21059;-79
2022/08/17 15:32:27;;;;;;;6.45;4.22;;;25.80;99.90;;;;;;1940028;72;22646;-79
2022/08/17 15:35:19;;;;;;;6.35;4.28;;;25.70;99.90;;;;;;1911513;75;21084;-79
2022/08/17 15:38:13;;;;;;;5.47;4.12;;;25.60;99.90;;;;;;1901731;75;21134;-79
2022/08/17 15:41:04;;;;;;;5.12;3.98;;;25.60;99.90;;;;;;1912366;75;21160;-79
2022/08/17 15:43:56;;;;;;;4.67;4.00;;;25.60;99.90;;;;;;1900850;75;21123;-79
2022/08/17 15:46:48;;;;;;;6.72;3.85;;;25.50;99.90;;;;;;1905233;75;21136;-78
2022/08/17 15:49:42;;;;;;;5.60;3.70;;;25.50;99.90;;;;;;1884646;75;21094;-88
2022/08/17 15:52:36;;;;;;;4.12;3.27;;;25.30;99.90;;;;;;1898605;75;21036;-78
2022/08/17 15:58:09;;;;;;;7.30;3.65;;;25.10;99.90;;;;;;1940978;72;22186;-79
2022/08/17 16:01:02;;;;;;;6.45;3.15;;;24.80;99.90;;;;;;1908503;74;21215;-88
2022/08/17 16:03:56;;;;;;;4.35;3.45;;;24.60;99.90;;;;;;1915905;74;21075;-78
2022/08/17 16:09:37;;;;;;;4.08;3.00;;;24.80;99.90;;;;;;1940337;72;22114;-79
2022/08/17 16:12:29;;;;;;;3.17;2.83;;;24.80;99.90;;;;;;1896410;75;21154;-78
2022/08/17 16:15:20;;;;;;;5.25;3.08;;;24.70;99.90;;;;;;1884243;75;21117;-79
2022/08/17 16:18:12;;;;;;;5.15;3.10;;;24.70;99.90;;;;;;1899956;75;21105;-79
2022/08/17 16:21:24;;;;;;;5.22;2.83;;;24.60;99.90;;;;;;1902310;75;21051;-79
2022/08/17 16:24:16;;;;;;;3.37;2.80;;;24.70;99.90;;;;;;1893976;75;21608;-79
2022/08/17 16:27:08;;;;;;;6.85;3.20;;;24.60;99.90;;;;;;1890408;75;21144;-79
2022/08/17 16:30:01;;;;;;;6.12;3.47;;;24.40;99.90;;;;;;1883547;75;21153;-78
2022/08/17 16:32:54;;;;;;;4.60;3.22;;;24.30;99.90;;;;;;1868833;76;21047;-78
2022/08/17 16:41:04;;;;;;;4.33;3.20;;;24.00;99.90;;;;;;1948860;72;22142;-78
2022/08/17 16:43:56;;;;;;;6.65;3.70;;;24.10;99.90;;;;;;1886910;75;21088;-78
2022/08/17 16:46:48;;;;;;;5.40;3.37;;;24.00;99.90;;;;;;1902755;75;21051;-79
2022/08/17 16:49:48;;;;;;;5.58;3.60;;;23.90;99.90;;;;;;1889091;75;21111;-78
2022/08/17 16:55:22;;;;;;;6.72;4.58;;;23.70;99.90;;;;;;1930964;72;22170;-78
2022/08/17 16:58:20;;;;;;;8.43;4.40;;;23.50;99.90;;;;;;1902497;74;21050;-79
2022/08/17 17:01:12;;;;;;;7.22;4.83;;;23.50;99.90;;;;;;1898149;74;21210;-78
2022/08/17 17:04:06;;;;;;;5.50;4.53;;;23.50;99.90;;;;;;1911696;75;21190;-78
2022/08/17 17:07:02;;;;;;;6.12;4.12;;;23.50;99.90;;;;;;1912633;74;21132;-78
2022/08/17 17:09:55;;;;;;;9.88;4.80;;;23.50;99.90;;;;;;1892346;75;21146;-78
2022/08/17 17:12:48;;;;;;;10.50;5.28;;;23.60;99.90;;;;;;1871197;76;21127;-78
2022/08/17 17:15:50;;;;;;;7.55;5.08;;;23.20;99.90;;;;;;1862733;76;21160;-75
2022/08/17 17:18:44;;;;;;;6.53;5.15;;;22.90;99.90;;;;;;1911327;74;21240;-73
2022/08/17 17:21:41;;;;;;;7.30;4.75;;;22.60;99.90;;;;;;1903487;73;21054;-73
2022/08/17 17:27:25;;;;;;;6.65;4.95;;;22.20;99.90;;;;;;1919707;72;28208;-73
2022/08/17 17:30:20;;;;;;;6.28;4.17;;;22.10;99.90;;;;;;1897095;75;21122;-73
2022/08/17 17:33:16;;;;;;;5.15;2.90;;;21.80;99.90;;;;;;1895444;75;21141;-75
2022/08/17 17:36:10;;;;;;;5.47;3.58;;;21.50;99.90;;;;;;1902986;74;21063;-77
2022/08/17 17:39:05;;;;;;;5.92;3.25;;;21.40;99.90;;;;;;1892004;75;21525;-74
2022/08/17 17:42:00;;;;;;;4.22;3.20;;;21.30;99.90;;;;;;1901130;75;21137;-79
2022/08/17 17:47:34;;;;;;;4.00;2.67;;;21.00;99.90;;;;;;1938958;72;22194;-85
2022/08/17 17:50:30;;;;;;;4.83;2.77;;;20.90;99.90;;;;;;1906945;75;21153;-77
2022/08/17 17:56:04;;;;;;;4.42;2.58;;;20.70;99.90;;;;;;1942584;72;22260;-74
2022/08/17 17:58:58;;;;;;;3.22;2.50;;;20.70;99.90;;;;;;1895505;75;21106;-74
2022/08/17 18:04:35;;;;;;;3.52;2.62;;;20.70;99.90;;;;;;1926837;72;22323;-75
2022/08/17 18:10:17;;;;;;;3.17;2.17;;;20.60;99.90;;;;;;1938669;72;22240;-74
2022/08/17 18:13:22;;;;;;;3.17;2.50;;;20.50;99.90;;;;;;1902754;75;21050;-75
2022/08/17 18:16:15;;;;;;;6.03;2.80;;;20.60;99.90;;;;;;1900271;75;21051;-75
2022/08/17 18:19:09;;;;;;;2.52;2.27;;;20.70;99.90;;;;;;1903028;75;21102;-75